Carp Lake, MI (49718)

5:32 AM EDT on March 30, 2015 (GMT -0400)
Creekside, 4 Miles WSW Bliss | | Change Station
CLOSE
Current Station
Personal Weather Station
Location: Bliss Township, MI
Elevation: 708 ft
Nearby Weather Stations
Active Advisory: Special Statement

Elev 708 ft 45.65 °N, 84.92 °W | Updated 10 seconds ago

Overcast
Overcast
31.4 °F
Feels Like 31 °F
N
3.0
Wind Variable Wind from WNW
Gusts 15.0 mph

Today
High -- | Low -- °F
--% Chance of Precip.
Yesterday
High -- | Low -- °F
Precip. -- in
7:23 AM 8:04 PM
Waxing Gibbous, 78% visible
Pressure 29.68 in
Visibility 10.0 miles
Clouds Scattered Clouds 2400 ft
Scattered Clouds 3700 ft
Windchill 31 °F
Dew Point 29 °F
Humidity 92%
Rainfall 0.05 in
Snow Depth Not available.
UV 0 out of 12
Pollen 3.10 out of 12
Air Quality Not available.
Flu Activity Not available.
SPECI KPLN 300909Z AUTO 27009KT 10SM SCT024 SCT037 01/M01 A2968 RMK AO2 T00111011

More Conditions Fewer Conditions

Pressure 29.68 in
Visibility 10.0 miles
Clouds Scattered Clouds 2400 ft
Scattered Clouds 3700 ft
Windchill 31 °F
Dew Point 29 °F
Humidity 92%
Rainfall 0.05 in
Snow Depth Not available.
UV 0 out of 12
Pollen 3.10 out of 12
Air Quality Not available.
Flu Activity Not available.
SPECI KPLN 300909Z AUTO 27009KT 10SM SCT024 SCT037 01/M01 A2968 RMK AO2 T00111011

More Conditions Fewer Conditions

Nowcast | as of 5:00 am EDT on March 30, 2015

At 6 am...mostly cloudy. Scattered snow showers. Temperature 33. West winds 11 mph. At 8 am...mostly cloudy. Scattered snow showers. Temperature 32. West winds 9 mph. At 10 am...mostly cloudy. Scattered snow showers. Temperature 33. Northwest winds 11 mph. At 12 PM...mostly cloudy. Temperature 35. Northwest winds 13 mph.

×

10-Day Weather Forecast

Almanac

Astronomy

Mar. 30, 2015 Rise Set
Actual Time
Civil Twilight
Nautical Twilight
Astronomical Twilight
Moon
Length of Visible Light
Length of Day
Tomorrow will be .
, % of the Moon is Illuminated

Today's Extremes

State Highs State Lows

Community

WunderPhotos

Upload Photos

1,809,451 photos uploaded!

WunderBlogs® & News

Nearby

Air Quality

  Air Quality AQ Index Pollutant
Not available.

Snow Depth

Station Depth Elevation

Earthquake Activity

City Distance Mag. Time & Date
Minimum magnitude displayed is 2.5.

Coastal Water Temperatures

Place Temperature

Stations

Nearby Weather Stations

Station Location Temp. Windchill Dew Point Humidity Wind Precip. Elev Updated Type
                   
Special Statement
Statement as of 4:32 AM EDT on March 30, 2015

... Slick travel in parts of the area this morning...

Temperatures hovering around freezing combined with slushy snow
accumulations on some roads will result in very slick travel early
this morning. This will especially be the case across the higher
terrain of northern lower and parts of eastern upper. If traveling
across this area early today... slow down and use caution.

Conditions will improve as the morning progresses and temperatures
warm above freezing.

Jk